sensor_id;sensor_type;location;lat;lon;timestamp;P1;durP1;ratioP1;P2;durP2;ratioP2
44842;SDS011;31884;52.538;13.820;2023-08-17T00:02:11;4.35;;;2.72;;
44842;SDS011;31884;52.538;13.820;2023-08-17T00:04:38;6.75;;;3.20;;
44842;SDS011;31884;52.538;13.820;2023-08-17T00:07:03;7.70;;;2.85;;
44842;SDS011;31884;52.538;13.820;2023-08-17T00:09:29;6.97;;;3.47;;
44842;SDS011;31884;52.538;13.820;2023-08-17T00:11:55;6.18;;;3.13;;
44842;SDS011;31884;52.538;13.820;2023-08-17T00:14:21;5.85;;;2.67;;
44842;SDS011;31884;52.538;13.820;2023-08-17T00:16:46;4.43;;;2.60;;
44842;SDS011;31884;52.538;13.820;2023-08-17T00:19:14;7.20;;;2.55;;
44842;SDS011;31884;52.538;13.820;2023-08-17T00:21:39;4.50;;;2.72;;
44842;SDS011;31884;52.538;13.820;2023-08-17T00:24:04;4.13;;;2.55;;
44842;SDS011;31884;52.538;13.820;2023-08-17T00:26:30;7.00;;;2.65;;
44842;SDS011;31884;52.538;13.820;2023-08-17T00:28:55;5.00;;;2.60;;
44842;SDS011;31884;52.538;13.820;2023-08-17T00:31:21;4.45;;;2.55;;
44842;SDS011;31884;52.538;13.820;2023-08-17T00:33:47;6.05;;;2.63;;
44842;SDS011;31884;52.538;13.820;2023-08-17T00:36:12;5.85;;;2.47;;
44842;SDS011;31884;52.538;13.820;2023-08-17T00:38:37;3.70;;;2.53;;
44842;SDS011;31884;52.538;13.820;2023-08-17T00:41:03;5.10;;;2.75;;
44842;SDS011;31884;52.538;13.820;2023-08-17T00:43:28;7.85;;;2.67;;
44842;SDS011;31884;52.538;13.820;2023-08-17T00:45:54;6.65;;;2.70;;
44842;SDS011;31884;52.538;13.820;2023-08-17T00:48:20;4.65;;;2.58;;
44842;SDS011;31884;52.538;13.820;2023-08-17T00:50:46;3.90;;;2.40;;
44842;SDS011;31884;52.538;13.820;2023-08-17T00:53:13;3.65;;;2.60;;
44842;SDS011;31884;52.538;13.820;2023-08-17T00:55:41;6.80;;;3.25;;
44842;SDS011;31884;52.538;13.820;2023-08-17T00:58:07;4.05;;;2.75;;
44842;SDS011;31884;52.538;13.820;2023-08-17T01:00:33;6.03;;;3.20;;
44842;SDS011;31884;52.538;13.820;2023-08-17T01:02:59;5.65;;;2.80;;
44842;SDS011;31884;52.538;13.820;2023-08-17T01:05:25;4.35;;;2.60;;
44842;SDS011;31884;52.538;13.820;2023-08-17T01:07:50;6.53;;;2.95;;
44842;SDS011;31884;52.538;13.820;2023-08-17T01:10:16;5.63;;;2.83;;
44842;SDS011;31884;52.538;13.820;2023-08-17T01:15:35;4.68;;;2.25;;
44842;SDS011;31884;52.538;13.820;2023-08-17T01:20:40;5.28;;;2.90;;
44842;SDS011;31884;52.538;13.820;2023-08-17T01:23:06;5.65;;;2.72;;
44842;SDS011;31884;52.538;13.820;2023-08-17T01:25:32;2.83;;;2.33;;
44842;SDS011;31884;52.538;13.820;2023-08-17T01:28:04;5.43;;;2.97;;
44842;SDS011;31884;52.538;13.820;2023-08-17T01:30:32;6.07;;;2.60;;
44842;SDS011;31884;52.538;13.820;2023-08-17T01:39:02;5.45;;;3.17;;
44842;SDS011;31884;52.538;13.820;2023-08-17T01:41:29;7.50;;;3.55;;
44842;SDS011;31884;52.538;13.820;2023-08-17T01:43:55;7.13;;;3.28;;
44842;SDS011;31884;52.538;13.820;2023-08-17T01:46:22;7.70;;;3.33;;
44842;SDS011;31884;52.538;13.820;2023-08-17T01:48:47;4.38;;;2.85;;
44842;SDS011;31884;52.538;13.820;2023-08-17T01:51:19;6.45;;;3.28;;
44842;SDS011;31884;52.538;13.820;2023-08-17T01:53:45;5.13;;;2.53;;
44842;SDS011;31884;52.538;13.820;2023-08-17T01:56:11;4.65;;;2.78;;
44842;SDS011;31884;52.538;13.820;2023-08-17T01:58:36;5.55;;;2.83;;
44842;SDS011;31884;52.538;13.820;2023-08-17T02:01:01;5.47;;;3.10;;
44842;SDS011;31884;52.538;13.820;2023-08-17T02:03:27;3.97;;;2.42;;
44842;SDS011;31884;52.538;13.820;2023-08-17T02:05:55;7.22;;;3.55;;
44842;SDS011;31884;52.538;13.820;2023-08-17T02:08:21;6.63;;;3.22;;
44842;SDS011;31884;52.538;13.820;2023-08-17T02:10:46;8.35;;;3.22;;
44842;SDS011;31884;52.538;13.820;2023-08-17T02:13:12;5.18;;;3.15;;
44842;SDS011;31884;52.538;13.820;2023-08-17T02:15:38;15.57;;;3.25;;
44842;SDS011;31884;52.538;13.820;2023-08-17T02:18:04;4.57;;;2.90;;
44842;SDS011;31884;52.538;13.820;2023-08-17T02:20:30;5.45;;;2.55;;
44842;SDS011;31884;52.538;13.820;2023-08-17T02:22:55;4.93;;;2.67;;
44842;SDS011;31884;52.538;13.820;2023-08-17T02:25:20;5.72;;;3.28;;
44842;SDS011;31884;52.538;13.820;2023-08-17T02:27:46;5.88;;;2.63;;
44842;SDS011;31884;52.538;13.820;2023-08-17T02:30:12;3.38;;;2.28;;
44842;SDS011;31884;52.538;13.820;2023-08-17T02:32:38;3.17;;;2.22;;
44842;SDS011;31884;52.538;13.820;2023-08-17T02:35:03;5.85;;;3.08;;
44842;SDS011;31884;52.538;13.820;2023-08-17T02:37:29;5.22;;;3.30;;
44842;SDS011;31884;52.538;13.820;2023-08-17T02:39:55;3.65;;;2.80;;
44842;SDS011;31884;52.538;13.820;2023-08-17T02:42:20;6.18;;;3.40;;
44842;SDS011;31884;52.538;13.820;2023-08-17T02:44:46;4.80;;;3.00;;
44842;SDS011;31884;52.538;13.820;2023-08-17T02:47:12;4.53;;;2.88;;
44842;SDS011;31884;52.538;13.820;2023-08-17T02:49:37;5.65;;;2.45;;
44842;SDS011;31884;52.538;13.820;2023-08-17T02:52:03;3.92;;;2.53;;
44842;SDS011;31884;52.538;13.820;2023-08-17T02:54:28;6.60;;;3.15;;
44842;SDS011;31884;52.538;13.820;2023-08-17T02:56:54;7.15;;;2.63;;
44842;SDS011;31884;52.538;13.820;2023-08-17T02:59:19;6.32;;;3.28;;
44842;SDS011;31884;52.538;13.820;2023-08-17T03:01:45;8.05;;;2.97;;
44842;SDS011;31884;52.538;13.820;2023-08-17T03:04:10;4.38;;;3.00;;
44842;SDS011;31884;52.538;13.820;2023-08-17T03:06:36;5.97;;;2.95;;
44842;SDS011;31884;52.538;13.820;2023-08-17T03:09:01;5.55;;;2.60;;
44842;SDS011;31884;52.538;13.820;2023-08-17T03:11:27;5.63;;;3.15;;
44842;SDS011;31884;52.538;13.820;2023-08-17T03:13:52;4.45;;;2.45;;
44842;SDS011;31884;52.538;13.820;2023-08-17T03:16:24;7.07;;;2.83;;
44842;SDS011;31884;52.538;13.820;2023-08-17T03:18:50;7.25;;;3.00;;
44842;SDS011;31884;52.538;13.820;2023-08-17T03:21:16;4.93;;;2.30;;
44842;SDS011;31884;52.538;13.820;2023-08-17T03:23:42;4.30;;;2.28;;
44842;SDS011;31884;52.538;13.820;2023-08-17T03:26:08;5.13;;;2.65;;
44842;SDS011;31884;52.538;13.820;2023-08-17T03:28:33;5.75;;;2.90;;
44842;SDS011;31884;52.538;13.820;2023-08-17T03:30:59;3.15;;;2.22;;
44842;SDS011;31884;52.538;13.820;2023-08-17T03:33:24;5.10;;;2.78;;
44842;SDS011;31884;52.538;13.820;2023-08-17T03:35:50;4.50;;;2.47;;
44842;SDS011;31884;52.538;13.820;2023-08-17T03:38:15;3.38;;;2.30;;
44842;SDS011;31884;52.538;13.820;2023-08-17T03:40:40;8.20;;;2.67;;
44842;SDS011;31884;52.538;13.820;2023-08-17T03:43:06;5.07;;;2.40;;
44842;SDS011;31884;52.538;13.820;2023-08-17T03:45:32;5.07;;;2.50;;
44842;SDS011;31884;52.538;13.820;2023-08-17T03:47:57;3.08;;;2.38;;
44842;SDS011;31884;52.538;13.820;2023-08-17T03:50:25;4.93;;;2.72;;
44842;SDS011;31884;52.538;13.820;2023-08-17T03:52:52;3.88;;;2.47;;
44842;SDS011;31884;52.538;13.820;2023-08-17T03:55:18;7.18;;;2.67;;
44842;SDS011;31884;52.538;13.820;2023-08-17T03:57:43;3.13;;;1.98;;
44842;SDS011;31884;52.538;13.820;2023-08-17T04:00:09;3.75;;;2.17;;
44842;SDS011;31884;52.538;13.820;2023-08-17T04:02:35;2.58;;;2.03;;
44842;SDS011;31884;52.538;13.820;2023-08-17T04:05:00;4.57;;;2.00;;
44842;SDS011;31884;52.538;13.820;2023-08-17T04:07:26;2.25;;;2.03;;
44842;SDS011;31884;52.538;13.820;2023-08-17T04:09:51;4.75;;;2.33;;
44842;SDS011;31884;52.538;13.820;2023-08-17T04:12:17;5.05;;;2.78;;
44842;SDS011;31884;52.538;13.820;2023-08-17T04:14:43;4.15;;;2.08;;
44842;SDS011;31884;52.538;13.820;2023-08-17T04:17:09;6.68;;;2.08;;
44842;SDS011;31884;52.538;13.820;2023-08-17T04:19:35;3.47;;;2.15;;
44842;SDS011;31884;52.538;13.820;2023-08-17T04:22:00;5.07;;;2.10;;
44842;SDS011;31884;52.538;13.820;2023-08-17T04:24:25;5.75;;;2.50;;
44842;SDS011;31884;52.538;13.820;2023-08-17T04:26:51;5.43;;;2.13;;
44842;SDS011;31884;52.538;13.820;2023-08-17T04:29:16;3.97;;;2.00;;
44842;SDS011;31884;52.538;13.820;2023-08-17T04:31:42;4.30;;;1.98;;
44842;SDS011;31884;52.538;13.820;2023-08-17T04:34:07;5.35;;;2.38;;
44842;SDS011;31884;52.538;13.820;2023-08-17T04:36:33;2.55;;;2.25;;
44842;SDS011;31884;52.538;13.820;2023-08-17T04:38:58;3.63;;;2.13;;
44842;SDS011;31884;52.538;13.820;2023-08-17T04:41:24;7.75;;;2.22;;
44842;SDS011;31884;52.538;13.820;2023-08-17T04:43:49;5.78;;;2.53;;
44842;SDS011;31884;52.538;13.820;2023-08-17T04:46:15;4.60;;;1.98;;
44842;SDS011;31884;52.538;13.820;2023-08-17T04:48:40;5.43;;;2.30;;
44842;SDS011;31884;52.538;13.820;2023-08-17T04:51:06;3.88;;;1.75;;
44842;SDS011;31884;52.538;13.820;2023-08-17T04:53:31;5.93;;;2.45;;
44842;SDS011;31884;52.538;13.820;2023-08-17T04:55:58;7.65;;;2.15;;
44842;SDS011;31884;52.538;13.820;2023-08-17T04:58:24;6.85;;;2.08;;
44842;SDS011;31884;52.538;13.820;2023-08-17T05:00:49;2.55;;;1.70;;
44842;SDS011;31884;52.538;13.820;2023-08-17T05:03:15;3.05;;;1.42;;
44842;SDS011;31884;52.538;13.820;2023-08-17T05:05:41;2.78;;;1.85;;
44842;SDS011;31884;52.538;13.820;2023-08-17T05:08:06;1.90;;;1.70;;
44842;SDS011;31884;52.538;13.820;2023-08-17T05:10:31;3.10;;;1.77;;
44842;SDS011;31884;52.538;13.820;2023-08-17T05:12:57;4.80;;;2.00;;
44842;SDS011;31884;52.538;13.820;2023-08-17T05:15:22;2.50;;;1.98;;
44842;SDS011;31884;52.538;13.820;2023-08-17T05:17:48;4.10;;;1.77;;
44842;SDS011;31884;52.538;13.820;2023-08-17T05:20:13;5.18;;;1.83;;
44842;SDS011;31884;52.538;13.820;2023-08-17T05:22:39;2.10;;;1.77;;
44842;SDS011;31884;52.538;13.820;2023-08-17T05:25:05;1.92;;;1.70;;
44842;SDS011;31884;52.538;13.820;2023-08-17T05:27:31;3.40;;;1.92;;
44842;SDS011;31884;52.538;13.820;2023-08-17T05:29:56;3.70;;;1.92;;
44842;SDS011;31884;52.538;13.820;2023-08-17T05:32:22;4.30;;;1.67;;
44842;SDS011;31884;52.538;13.820;2023-08-17T05:34:47;2.15;;;1.83;;
44842;SDS011;31884;52.538;13.820;2023-08-17T05:37:13;4.60;;;1.75;;
44842;SDS011;31884;52.538;13.820;2023-08-17T05:39:40;6.32;;;1.75;;
44842;SDS011;31884;52.538;13.820;2023-08-17T05:42:06;3.33;;;1.73;;
44842;SDS011;31884;52.538;13.820;2023-08-17T05:44:32;2.13;;;1.70;;
44842;SDS011;31884;52.538;13.820;2023-08-17T05:46:57;4.18;;;1.67;;
44842;SDS011;31884;52.538;13.820;2023-08-17T05:49:23;3.08;;;1.70;;
44842;SDS011;31884;52.538;13.820;2023-08-17T05:51:48;5.00;;;2.05;;
44842;SDS011;31884;52.538;13.820;2023-08-17T05:54:14;1.95;;;1.60;;
44842;SDS011;31884;52.538;13.820;2023-08-17T05:56:39;3.50;;;1.50;;
44842;SDS011;31884;52.538;13.820;2023-08-17T05:59:09;2.65;;;1.45;;
44842;SDS011;31884;52.538;13.820;2023-08-17T06:01:35;2.60;;;1.52;;
44842;SDS011;31884;52.538;13.820;2023-08-17T06:04:01;4.32;;;2.10;;
44842;SDS011;31884;52.538;13.820;2023-08-17T06:06:26;3.40;;;1.80;;
44842;SDS011;31884;52.538;13.820;2023-08-17T06:08:52;2.67;;;1.48;;
44842;SDS011;31884;52.538;13.820;2023-08-17T06:11:17;4.43;;;1.63;;
44842;SDS011;31884;52.538;13.820;2023-08-17T06:13:43;4.47;;;1.63;;
44842;SDS011;31884;52.538;13.820;2023-08-17T06:16:09;3.88;;;1.80;;
44842;SDS011;31884;52.538;13.820;2023-08-17T06:18:35;2.97;;;1.63;;
44842;SDS011;31884;52.538;13.820;2023-08-17T06:21:01;2.92;;;1.50;;
44842;SDS011;31884;52.538;13.820;2023-08-17T06:23:26;4.15;;;1.73;;
44842;SDS011;31884;52.538;13.820;2023-08-17T06:25:55;3.70;;;2.05;;
44842;SDS011;31884;52.538;13.820;2023-08-17T06:28:22;2.30;;;1.30;;
44842;SDS011;31884;52.538;13.820;2023-08-17T06:30:51;2.28;;;1.42;;
44842;SDS011;31884;52.538;13.820;2023-08-17T06:33:18;2.65;;;1.38;;
44842;SDS011;31884;52.538;13.820;2023-08-17T06:35:43;2.22;;;1.30;;
44842;SDS011;31884;52.538;13.820;2023-08-17T06:38:09;2.03;;;1.13;;
44842;SDS011;31884;52.538;13.820;2023-08-17T06:40:34;2.13;;;1.23;;
44842;SDS011;31884;52.538;13.820;2023-08-17T06:43:00;2.63;;;1.52;;
44842;SDS011;31884;52.538;13.820;2023-08-17T06:45:25;3.75;;;1.40;;
44842;SDS011;31884;52.538;13.820;2023-08-17T06:47:51;5.68;;;2.33;;
44842;SDS011;31884;52.538;13.820;2023-08-17T06:50:16;2.50;;;1.40;;
44842;SDS011;31884;52.538;13.820;2023-08-17T06:52:42;3.95;;;1.90;;
44842;SDS011;31884;52.538;13.820;2023-08-17T06:55:08;4.35;;;1.75;;
44842;SDS011;31884;52.538;13.820;2023-08-17T06:57:35;2.10;;;1.48;;
44842;SDS011;31884;52.538;13.820;2023-08-17T07:00:00;2.50;;;1.48;;
44842;SDS011;31884;52.538;13.820;2023-08-17T07:02:25;3.42;;;1.58;;
44842;SDS011;31884;52.538;13.820;2023-08-17T07:04:51;1.92;;;1.45;;
44842;SDS011;31884;52.538;13.820;2023-08-17T07:07:16;2.45;;;1.25;;
44842;SDS011;31884;52.538;13.820;2023-08-17T07:09:42;2.40;;;1.85;;
44842;SDS011;31884;52.538;13.820;2023-08-17T07:12:07;2.95;;;1.70;;
44842;SDS011;31884;52.538;13.820;2023-08-17T07:14:33;2.67;;;1.60;;
44842;SDS011;31884;52.538;13.820;2023-08-17T07:16:58;2.75;;;1.88;;
44842;SDS011;31884;52.538;13.820;2023-08-17T07:19:24;4.57;;;1.90;;
44842;SDS011;31884;52.538;13.820;2023-08-17T07:21:50;3.60;;;1.50;;
44842;SDS011;31884;52.538;13.820;2023-08-17T07:24:15;2.33;;;1.70;;
44842;SDS011;31884;52.538;13.820;2023-08-17T07:26:41;3.53;;;1.77;;
44842;SDS011;31884;52.538;13.820;2023-08-17T07:29:07;2.67;;;1.70;;
44842;SDS011;31884;52.538;13.820;2023-08-17T07:31:32;3.78;;;1.65;;
44842;SDS011;31884;52.538;13.820;2023-08-17T07:33:58;2.70;;;1.50;;
44842;SDS011;31884;52.538;13.820;2023-08-17T07:36:25;2.97;;;1.60;;
44842;SDS011;31884;52.538;13.820;2023-08-17T07:38:50;2.78;;;1.40;;
44842;SDS011;31884;52.538;13.820;2023-08-17T07:41:16;5.07;;;1.23;;
44842;SDS011;31884;52.538;13.820;2023-08-17T07:43:41;1.67;;;1.20;;
44842;SDS011;31884;52.538;13.820;2023-08-17T07:46:06;4.55;;;1.48;;
44842;SDS011;31884;52.538;13.820;2023-08-17T07:48:32;1.50;;;1.27;;
44842;SDS011;31884;52.538;13.820;2023-08-17T07:50:58;4.00;;;1.77;;
44842;SDS011;31884;52.538;13.820;2023-08-17T07:53:24;2.80;;;1.40;;
44842;SDS011;31884;52.538;13.820;2023-08-17T07:55:50;2.58;;;1.80;;
44842;SDS011;31884;52.538;13.820;2023-08-17T07:58:15;3.28;;;1.55;;
44842;SDS011;31884;52.538;13.820;2023-08-17T08:00:41;2.17;;;1.50;;
44842;SDS011;31884;52.538;13.820;2023-08-17T08:03:06;2.05;;;1.30;;
44842;SDS011;31884;52.538;13.820;2023-08-17T08:05:31;3.75;;;1.75;;
44842;SDS011;31884;52.538;13.820;2023-08-17T08:07:57;3.30;;;1.90;;
44842;SDS011;31884;52.538;13.820;2023-08-17T08:10:22;6.20;;;2.00;;
44842;SDS011;31884;52.538;13.820;2023-08-17T08:12:48;3.70;;;2.20;;
44842;SDS011;31884;52.538;13.820;2023-08-17T08:15:13;5.07;;;1.73;;
44842;SDS011;31884;52.538;13.820;2023-08-17T08:17:39;3.00;;;1.98;;
44842;SDS011;31884;52.538;13.820;2023-08-17T08:20:05;5.70;;;2.08;;
44842;SDS011;31884;52.538;13.820;2023-08-17T08:22:31;2.53;;;2.10;;
44842;SDS011;31884;52.538;13.820;2023-08-17T08:24:57;4.13;;;1.90;;
44842;SDS011;31884;52.538;13.820;2023-08-17T08:27:23;5.78;;;1.85;;
44842;SDS011;31884;52.538;13.820;2023-08-17T08:29:49;3.28;;;1.98;;
44842;SDS011;31884;52.538;13.820;2023-08-17T08:32:15;7.25;;;2.60;;
44842;SDS011;31884;52.538;13.820;2023-08-17T08:34:40;3.45;;;1.90;;
44842;SDS011;31884;52.538;13.820;2023-08-17T08:37:06;3.60;;;2.10;;
44842;SDS011;31884;52.538;13.820;2023-08-17T08:39:31;2.47;;;1.75;;
44842;SDS011;31884;52.538;13.820;2023-08-17T08:41:57;3.25;;;2.15;;
44842;SDS011;31884;52.538;13.820;2023-08-17T08:44:23;2.22;;;2.03;;
44842;SDS011;31884;52.538;13.820;2023-08-17T08:46:49;3.10;;;1.65;;
44842;SDS011;31884;52.538;13.820;2023-08-17T08:49:19;2.33;;;1.83;;
44842;SDS011;31884;52.538;13.820;2023-08-17T08:51:48;3.47;;;2.10;;
44842;SDS011;31884;52.538;13.820;2023-08-17T08:54:18;3.22;;;1.90;;
44842;SDS011;31884;52.538;13.820;2023-08-17T08:56:48;3.70;;;2.10;;
44842;SDS011;31884;52.538;13.820;2023-08-17T08:59:19;2.40;;;2.05;;
44842;SDS011;31884;52.538;13.820;2023-08-17T09:01:46;2.90;;;2.15;;
44842;SDS011;31884;52.538;13.820;2023-08-17T09:04:12;3.25;;;1.90;;
44842;SDS011;31884;52.538;13.820;2023-08-17T09:06:38;3.05;;;1.70;;
44842;SDS011;31884;52.538;13.820;2023-08-17T09:09:05;4.30;;;1.90;;
44842;SDS011;31884;52.538;13.820;2023-08-17T09:11:31;2.78;;;1.98;;
44842;SDS011;31884;52.538;13.820;2023-08-17T09:13:57;2.97;;;2.30;;
44842;SDS011;31884;52.538;13.820;2023-08-17T09:16:22;3.67;;;2.15;;
44842;SDS011;31884;52.538;13.820;2023-08-17T09:18:48;3.58;;;2.30;;
44842;SDS011;31884;52.538;13.820;2023-08-17T09:21:23;2.47;;;2.10;;
44842;SDS011;31884;52.538;13.820;2023-08-17T09:23:55;3.83;;;2.45;;
44842;SDS011;31884;52.538;13.820;2023-08-17T09:26:21;3.75;;;2.42;;
44842;SDS011;31884;52.538;13.820;2023-08-17T09:28:48;2.67;;;2.22;;
44842;SDS011;31884;52.538;13.820;2023-08-17T09:31:14;4.97;;;2.60;;
44842;SDS011;31884;52.538;13.820;2023-08-17T09:33:40;4.07;;;2.78;;
44842;SDS011;31884;52.538;13.820;2023-08-17T09:36:05;3.85;;;2.40;;
44842;SDS011;31884;52.538;13.820;2023-08-17T09:38:31;3.63;;;2.50;;
44842;SDS011;31884;52.538;13.820;2023-08-17T09:40:57;4.35;;;2.42;;
44842;SDS011;31884;52.538;13.820;2023-08-17T09:43:23;2.92;;;2.17;;
44842;SDS011;31884;52.538;13.820;2023-08-17T09:45:50;3.40;;;2.50;;
44842;SDS011;31884;52.538;13.820;2023-08-17T09:48:16;5.32;;;2.88;;
44842;SDS011;31884;52.538;13.820;2023-08-17T09:50:43;2.88;;;2.22;;
44842;SDS011;31884;52.538;13.820;2023-08-17T09:53:12;3.60;;;2.20;;
44842;SDS011;31884;52.538;13.820;2023-08-17T09:55:39;7.05;;;2.70;;
44842;SDS011;31884;52.538;13.820;2023-08-17T09:58:06;4.15;;;2.83;;
44842;SDS011;31884;52.538;13.820;2023-08-17T10:00:33;6.90;;;3.33;;
44842;SDS011;31884;52.538;13.820;2023-08-17T10:02:59;3.15;;;2.05;;
44842;SDS011;31884;52.538;13.820;2023-08-17T10:05:30;5.88;;;2.67;;
44842;SDS011;31884;52.538;13.820;2023-08-17T10:08:00;3.47;;;2.30;;
44842;SDS011;31884;52.538;13.820;2023-08-17T10:10:27;4.30;;;2.38;;
44842;SDS011;31884;52.538;13.820;2023-08-17T10:12:59;3.05;;;2.35;;
44842;SDS011;31884;52.538;13.820;2023-08-17T10:15:33;3.90;;;3.00;;
44842;SDS011;31884;52.538;13.820;2023-08-17T10:18:13;2.97;;;2.53;;
44842;SDS011;31884;52.538;13.820;2023-08-17T10:20:49;6.00;;;3.47;;
44842;SDS011;31884;52.538;13.820;2023-08-17T10:23:22;9.45;;;2.90;;
44842;SDS011;31884;52.538;13.820;2023-08-17T10:25:49;4.45;;;3.42;;
44842;SDS011;31884;52.538;13.820;2023-08-17T10:28:15;5.72;;;3.13;;
44842;SDS011;31884;52.538;13.820;2023-08-17T10:30:42;3.72;;;3.17;;
44842;SDS011;31884;52.538;13.820;2023-08-17T10:33:08;5.93;;;3.00;;
44842;SDS011;31884;52.538;13.820;2023-08-17T10:35:34;4.20;;;3.17;;
44842;SDS011;31884;52.538;13.820;2023-08-17T10:38:02;5.90;;;3.40;;
44842;SDS011;31884;52.538;13.820;2023-08-17T10:40:33;4.90;;;3.22;;
44842;SDS011;31884;52.538;13.820;2023-08-17T10:43:00;5.80;;;3.92;;
44842;SDS011;31884;52.538;13.820;2023-08-17T10:45:27;3.72;;;2.80;;
44842;SDS011;31884;52.538;13.820;2023-08-17T10:50:34;4.25;;;2.80;;
44842;SDS011;31884;52.538;13.820;2023-08-17T10:53:04;5.13;;;3.15;;
44842;SDS011;31884;52.538;13.820;2023-08-17T10:55:41;3.75;;;2.85;;
44842;SDS011;31884;52.538;13.820;2023-08-17T10:58:09;4.35;;;3.05;;
44842;SDS011;31884;52.538;13.820;2023-08-17T11:00:37;3.97;;;2.75;;
44842;SDS011;31884;52.538;13.820;2023-08-17T11:03:05;4.95;;;3.25;;
44842;SDS011;31884;52.538;13.820;2023-08-17T11:08:02;3.97;;;3.40;;
44842;SDS011;31884;52.538;13.820;2023-08-17T11:10:28;5.45;;;3.85;;
44842;SDS011;31884;52.538;13.820;2023-08-17T11:12:55;3.97;;;3.58;;
44842;SDS011;31884;52.538;13.820;2023-08-17T11:15:36;3.40;;;3.10;;
44842;SDS011;31884;52.538;13.820;2023-08-17T11:18:05;5.30;;;4.78;;
44842;SDS011;31884;52.538;13.820;2023-08-17T11:20:31;8.18;;;4.43;;
44842;SDS011;31884;52.538;13.820;2023-08-17T11:22:57;4.43;;;3.97;;
44842;SDS011;31884;52.538;13.820;2023-08-17T11:25:25;4.88;;;3.90;;
44842;SDS011;31884;52.538;13.820;2023-08-17T11:27:52;5.40;;;3.72;;
44842;SDS011;31884;52.538;13.820;2023-08-17T11:30:18;5.70;;;4.03;;
44842;SDS011;31884;52.538;13.820;2023-08-17T11:32:45;4.65;;;4.25;;
44842;SDS011;31884;52.538;13.820;2023-08-17T11:35:10;5.50;;;3.95;;
44842;SDS011;31884;52.538;13.820;2023-08-17T11:37:36;4.63;;;3.70;;
44842;SDS011;31884;52.538;13.820;2023-08-17T11:40:02;4.72;;;3.92;;
44842;SDS011;31884;52.538;13.820;2023-08-17T11:42:29;5.20;;;3.78;;
44842;SDS011;31884;52.538;13.820;2023-08-17T11:44:54;4.25;;;3.78;;
44842;SDS011;31884;52.538;13.820;2023-08-17T11:47:20;4.32;;;3.60;;
44842;SDS011;31884;52.538;13.820;2023-08-17T11:49:49;4.32;;;3.92;;
44842;SDS011;31884;52.538;13.820;2023-08-17T11:52:14;4.55;;;4.13;;
44842;SDS011;31884;52.538;13.820;2023-08-17T11:54:40;5.03;;;4.28;;
44842;SDS011;31884;52.538;13.820;2023-08-17T11:57:06;6.05;;;4.20;;
44842;SDS011;31884;52.538;13.820;2023-08-17T11:59:32;5.70;;;3.90;;
44842;SDS011;31884;52.538;13.820;2023-08-17T12:01:58;4.20;;;3.80;;
44842;SDS011;31884;52.538;13.820;2023-08-17T12:04:25;4.35;;;3.90;;
44842;SDS011;31884;52.538;13.820;2023-08-17T12:06:51;4.72;;;3.72;;
44842;SDS011;31884;52.538;13.820;2023-08-17T12:09:17;4.90;;;3.67;;
44842;SDS011;31884;52.538;13.820;2023-08-17T12:11:44;3.80;;;3.40;;
44842;SDS011;31884;52.538;13.820;2023-08-17T12:14:11;3.72;;;3.42;;
44842;SDS011;31884;52.538;13.820;2023-08-17T12:16:47;4.50;;;3.30;;
44842;SDS011;31884;52.538;13.820;2023-08-17T12:19:16;4.15;;;3.50;;
44842;SDS011;31884;52.538;13.820;2023-08-17T12:21:41;7.10;;;3.55;;
44842;SDS011;31884;52.538;13.820;2023-08-17T12:24:10;4.43;;;3.30;;
44842;SDS011;31884;52.538;13.820;2023-08-17T12:26:46;3.50;;;3.03;;
44842;SDS011;31884;52.538;13.820;2023-08-17T12:29:12;6.68;;;4.18;;
44842;SDS011;31884;52.538;13.820;2023-08-17T12:31:38;3.22;;;2.92;;
44842;SDS011;31884;52.538;13.820;2023-08-17T12:34:04;4.50;;;3.42;;
44842;SDS011;31884;52.538;13.820;2023-08-17T12:36:31;4.78;;;3.00;;
44842;SDS011;31884;52.538;13.820;2023-08-17T12:38:56;4.47;;;3.03;;
44842;SDS011;31884;52.538;13.820;2023-08-17T12:41:22;3.97;;;3.40;;
44842;SDS011;31884;52.538;13.820;2023-08-17T12:43:48;4.18;;;3.30;;
44842;SDS011;31884;52.538;13.820;2023-08-17T12:46:13;4.38;;;3.50;;
44842;SDS011;31884;52.538;13.820;2023-08-17T12:48:39;3.42;;;2.97;;
44842;SDS011;31884;52.538;13.820;2023-08-17T12:51:04;3.97;;;3.47;;
44842;SDS011;31884;52.538;13.820;2023-08-17T12:53:30;5.47;;;3.30;;
44842;SDS011;31884;52.538;13.820;2023-08-17T12:55:55;4.82;;;3.35;;
44842;SDS011;31884;52.538;13.820;2023-08-17T12:58:21;4.20;;;3.70;;
44842;SDS011;31884;52.538;13.820;2023-08-17T13:00:46;4.18;;;3.78;;
44842;SDS011;31884;52.538;13.820;2023-08-17T13:03:15;4.03;;;3.33;;
44842;SDS011;31884;52.538;13.820;2023-08-17T13:05:40;4.25;;;3.40;;
44842;SDS011;31884;52.538;13.820;2023-08-17T13:08:06;4.43;;;3.50;;
44842;SDS011;31884;52.538;13.820;2023-08-17T13:10:33;4.28;;;3.88;;
44842;SDS011;31884;52.538;13.820;2023-08-17T13:12:58;4.93;;;3.45;;
44842;SDS011;31884;52.538;13.820;2023-08-17T13:15:24;3.75;;;3.38;;
44842;SDS011;31884;52.538;13.820;2023-08-17T13:17:50;3.72;;;3.38;;
44842;SDS011;31884;52.538;13.820;2023-08-17T13:20:15;6.63;;;3.80;;
44842;SDS011;31884;52.538;13.820;2023-08-17T13:22:41;4.07;;;3.42;;
44842;SDS011;31884;52.538;13.820;2023-08-17T13:25:07;4.53;;;2.95;;
44842;SDS011;31884;52.538;13.820;2023-08-17T13:27:32;3.60;;;3.20;;
44842;SDS011;31884;52.538;13.820;2023-08-17T13:29:58;4.60;;;3.20;;
44842;SDS011;31884;52.538;13.820;2023-08-17T13:32:23;4.05;;;2.88;;
44842;SDS011;31884;52.538;13.820;2023-08-17T13:34:50;4.75;;;3.83;;
44842;SDS011;31884;52.538;13.820;2023-08-17T13:37:16;3.78;;;3.38;;
44842;SDS011;31884;52.538;13.820;2023-08-17T13:39:41;4.53;;;3.50;;
44842;SDS011;31884;52.538;13.820;2023-08-17T13:42:07;3.50;;;3.20;;
44842;SDS011;31884;52.538;13.820;2023-08-17T13:44:32;3.63;;;3.20;;
44842;SDS011;31884;52.538;13.820;2023-08-17T13:46:58;4.97;;;3.70;;
44842;SDS011;31884;52.538;13.820;2023-08-17T13:49:23;6.53;;;3.60;;
44842;SDS011;31884;52.538;13.820;2023-08-17T13:51:49;4.20;;;3.50;;
44842;SDS011;31884;52.538;13.820;2023-08-17T13:54:14;4.25;;;3.40;;
44842;SDS011;31884;52.538;13.820;2023-08-17T13:56:40;4.13;;;3.28;;
44842;SDS011;31884;52.538;13.820;2023-08-17T13:59:05;3.75;;;3.40;;
44842;SDS011;31884;52.538;13.820;2023-08-17T14:01:31;3.65;;;3.03;;
44842;SDS011;31884;52.538;13.820;2023-08-17T14:03:56;3.90;;;3.42;;
44842;SDS011;31884;52.538;13.820;2023-08-17T14:06:22;7.75;;;4.03;;
44842;SDS011;31884;52.538;13.820;2023-08-17T14:08:47;4.72;;;3.67;;
44842;SDS011;31884;52.538;13.820;2023-08-17T14:11:13;3.38;;;3.08;;
44842;SDS011;31884;52.538;13.820;2023-08-17T14:13:38;3.80;;;3.17;;
44842;SDS011;31884;52.538;13.820;2023-08-17T14:16:04;3.30;;;3.00;;
44842;SDS011;31884;52.538;13.820;2023-08-17T14:18:29;4.07;;;2.80;;
44842;SDS011;31884;52.538;13.820;2023-08-17T14:20:55;3.47;;;3.17;;
44842;SDS011;31884;52.538;13.820;2023-08-17T14:23:20;3.95;;;3.08;;
44842;SDS011;31884;52.538;13.820;2023-08-17T14:25:46;3.45;;;3.15;;
44842;SDS011;31884;52.538;13.820;2023-08-17T14:28:11;3.25;;;2.90;;
44842;SDS011;31884;52.538;13.820;2023-08-17T14:30:37;3.35;;;3.05;;
44842;SDS011;31884;52.538;13.820;2023-08-17T14:33:02;3.30;;;3.00;;
44842;SDS011;31884;52.538;13.820;2023-08-17T14:35:28;3.10;;;2.85;;
44842;SDS011;31884;52.538;13.820;2023-08-17T14:37:53;5.95;;;3.55;;
44842;SDS011;31884;52.538;13.820;2023-08-17T14:40:22;5.15;;;3.78;;
44842;SDS011;31884;52.538;13.820;2023-08-17T14:42:48;4.95;;;3.50;;
44842;SDS011;31884;52.538;13.820;2023-08-17T14:45:13;3.30;;;3.00;;